sensor_id;sensor_type;location;lat;lon;timestamp;P1;durP1;ratioP1;P2;durP2;ratioP2
26774;SDS011;14362;51.902;7.626;2022-07-24T00:04:00;5.15;;;4.03;;
26774;SDS011;14362;51.902;7.626;2022-07-24T00:08:03;4.23;;;3.83;;
26774;SDS011;14362;51.902;7.626;2022-07-24T00:12:05;4.40;;;4.00;;
26774;SDS011;14362;51.902;7.626;2022-07-24T00:16:07;4.25;;;3.85;;
26774;SDS011;14362;51.902;7.626;2022-07-24T00:20:10;4.28;;;3.95;;
26774;SDS011;14362;51.902;7.626;2022-07-24T00:24:12;5.50;;;4.07;;
26774;SDS011;14362;51.902;7.626;2022-07-24T00:28:13;4.45;;;4.05;;
26774;SDS011;14362;51.902;7.626;2022-07-24T00:32:15;5.53;;;4.43;;
26774;SDS011;14362;51.902;7.626;2022-07-24T00:36:18;5.55;;;4.18;;
26774;SDS011;14362;51.902;7.626;2022-07-24T00:40:19;6.07;;;4.13;;
26774;SDS011;14362;51.902;7.626;2022-07-24T00:44:21;4.68;;;4.28;;
26774;SDS011;14362;51.902;7.626;2022-07-24T00:48:23;4.90;;;4.40;;
26774;SDS011;14362;51.902;7.626;2022-07-24T00:52:25;6.65;;;4.50;;
26774;SDS011;14362;51.902;7.626;2022-07-24T00:56:27;5.45;;;4.55;;
26774;SDS011;14362;51.902;7.626;2022-07-24T01:00:29;5.72;;;4.13;;
26774;SDS011;14362;51.902;7.626;2022-07-24T01:04:30;4.35;;;3.95;;
26774;SDS011;14362;51.902;7.626;2022-07-24T01:08:34;6.00;;;4.60;;
26774;SDS011;14362;51.902;7.626;2022-07-24T01:12:37;7.30;;;4.93;;
26774;SDS011;14362;51.902;7.626;2022-07-24T01:16:39;4.78;;;4.38;;
26774;SDS011;14362;51.902;7.626;2022-07-24T01:20:42;6.97;;;5.10;;
26774;SDS011;14362;51.902;7.626;2022-07-24T01:24:47;6.65;;;4.60;;
26774;SDS011;14362;51.902;7.626;2022-07-24T01:28:49;7.05;;;5.20;;
26774;SDS011;14362;51.902;7.626;2022-07-24T01:32:50;6.18;;;5.25;;
26774;SDS011;14362;51.902;7.626;2022-07-24T01:36:53;5.50;;;5.00;;
26774;SDS011;14362;51.902;7.626;2022-07-24T01:40:54;7.72;;;6.22;;
26774;SDS011;14362;51.902;7.626;2022-07-24T01:44:56;5.55;;;5.05;;
26774;SDS011;14362;51.902;7.626;2022-07-24T01:48:57;5.90;;;4.75;;
26774;SDS011;14362;51.902;7.626;2022-07-24T01:53:00;5.45;;;4.95;;
26774;SDS011;14362;51.902;7.626;2022-07-24T01:57:02;7.85;;;5.72;;
26774;SDS011;14362;51.902;7.626;2022-07-24T02:01:04;5.15;;;4.75;;
26774;SDS011;14362;51.902;7.626;2022-07-24T02:05:06;6.30;;;5.05;;
26774;SDS011;14362;51.902;7.626;2022-07-24T02:09:10;5.40;;;4.63;;
26774;SDS011;14362;51.902;7.626;2022-07-24T02:13:11;5.90;;;5.03;;
26774;SDS011;14362;51.902;7.626;2022-07-24T02:17:13;5.78;;;5.28;;
26774;SDS011;14362;51.902;7.626;2022-07-24T02:21:14;5.60;;;5.07;;
26774;SDS011;14362;51.902;7.626;2022-07-24T02:25:17;6.40;;;5.80;;
26774;SDS011;14362;51.902;7.626;2022-07-24T02:29:18;6.53;;;5.93;;
26774;SDS011;14362;51.902;7.626;2022-07-24T02:33:20;6.72;;;5.90;;
26774;SDS011;14362;51.902;7.626;2022-07-24T02:37:21;6.28;;;5.72;;
26774;SDS011;14362;51.902;7.626;2022-07-24T02:41:24;7.72;;;6.18;;
26774;SDS011;14362;51.902;7.626;2022-07-24T02:45:25;7.57;;;6.30;;
26774;SDS011;14362;51.902;7.626;2022-07-24T02:49:27;7.68;;;6.53;;
26774;SDS011;14362;51.902;7.626;2022-07-24T02:53:28;7.63;;;6.65;;
26774;SDS011;14362;51.902;7.626;2022-07-24T02:57:31;7.10;;;6.22;;
26774;SDS011;14362;51.902;7.626;2022-07-24T03:01:33;7.32;;;6.72;;
26774;SDS011;14362;51.902;7.626;2022-07-24T03:05:34;7.90;;;6.53;;
26774;SDS011;14362;51.902;7.626;2022-07-24T03:09:36;10.80;;;6.82;;
26774;SDS011;14362;51.902;7.626;2022-07-24T03:13:38;6.72;;;6.18;;
26774;SDS011;14362;51.902;7.626;2022-07-24T03:17:47;7.50;;;6.80;;
26774;SDS011;14362;51.902;7.626;2022-07-24T03:21:49;7.85;;;7.15;;
26774;SDS011;14362;51.902;7.626;2022-07-24T03:25:50;7.82;;;7.00;;
26774;SDS011;14362;51.902;7.626;2022-07-24T03:29:54;7.15;;;6.43;;
26774;SDS011;14362;51.902;7.626;2022-07-24T03:33:55;7.28;;;6.57;;
26774;SDS011;14362;51.902;7.626;2022-07-24T03:37:57;9.98;;;7.10;;
26774;SDS011;14362;51.902;7.626;2022-07-24T03:41:58;7.65;;;6.90;;
26774;SDS011;14362;51.902;7.626;2022-07-24T03:46:01;10.98;;;7.07;;
26774;SDS011;14362;51.902;7.626;2022-07-24T03:50:03;8.07;;;7.28;;
26774;SDS011;14362;51.902;7.626;2022-07-24T03:54:05;11.43;;;7.78;;
26774;SDS011;14362;51.902;7.626;2022-07-24T03:58:07;10.48;;;7.35;;
26774;SDS011;14362;51.902;7.626;2022-07-24T04:02:09;8.30;;;7.55;;
26774;SDS011;14362;51.902;7.626;2022-07-24T04:06:11;7.93;;;7.13;;
26774;SDS011;14362;51.902;7.626;2022-07-24T04:10:12;9.95;;;7.50;;
26774;SDS011;14362;51.902;7.626;2022-07-24T04:14:14;9.38;;;7.60;;
26774;SDS011;14362;51.902;7.626;2022-07-24T04:18:16;9.05;;;7.53;;
26774;SDS011;14362;51.902;7.626;2022-07-24T04:22:18;8.25;;;6.90;;
26774;SDS011;14362;51.902;7.626;2022-07-24T04:26:20;8.32;;;7.43;;
26774;SDS011;14362;51.902;7.626;2022-07-24T04:30:21;9.60;;;7.05;;
26774;SDS011;14362;51.902;7.626;2022-07-24T04:34:24;8.65;;;7.55;;
26774;SDS011;14362;51.902;7.626;2022-07-24T04:38:25;10.75;;;7.65;;
26774;SDS011;14362;51.902;7.626;2022-07-24T04:42:27;8.38;;;7.57;;
26774;SDS011;14362;51.902;7.626;2022-07-24T04:46:28;7.80;;;6.97;;
26774;SDS011;14362;51.902;7.626;2022-07-24T04:50:31;8.57;;;6.90;;
26774;SDS011;14362;51.902;7.626;2022-07-24T04:54:33;8.57;;;7.78;;
26774;SDS011;14362;51.902;7.626;2022-07-24T04:58:35;9.40;;;7.85;;
26774;SDS011;14362;51.902;7.626;2022-07-24T05:02:36;8.48;;;6.95;;
26774;SDS011;14362;51.902;7.626;2022-07-24T05:06:39;9.02;;;6.97;;
26774;SDS011;14362;51.902;7.626;2022-07-24T05:10:40;8.50;;;7.20;;
26774;SDS011;14362;51.902;7.626;2022-07-24T05:14:42;9.98;;;7.25;;
26774;SDS011;14362;51.902;7.626;2022-07-24T05:18:44;7.95;;;7.15;;
26774;SDS011;14362;51.902;7.626;2022-07-24T05:22:47;11.60;;;7.28;;
26774;SDS011;14362;51.902;7.626;2022-07-24T05:26:48;7.28;;;6.60;;
26774;SDS011;14362;51.902;7.626;2022-07-24T05:30:50;8.18;;;6.30;;
26774;SDS011;14362;51.902;7.626;2022-07-24T05:34:51;7.40;;;5.97;;
26774;SDS011;14362;51.902;7.626;2022-07-24T05:38:54;7.95;;;6.55;;
26774;SDS011;14362;51.902;7.626;2022-07-24T05:42:55;6.80;;;6.07;;
26774;SDS011;14362;51.902;7.626;2022-07-24T05:46:57;6.38;;;5.78;;
26774;SDS011;14362;51.902;7.626;2022-07-24T05:50:58;7.05;;;5.85;;
26774;SDS011;14362;51.902;7.626;2022-07-24T05:55:02;6.97;;;5.53;;
26774;SDS011;14362;51.902;7.626;2022-07-24T05:59:04;6.15;;;5.35;;
26774;SDS011;14362;51.902;7.626;2022-07-24T06:03:06;6.65;;;4.90;;
26774;SDS011;14362;51.902;7.626;2022-07-24T06:07:07;7.00;;;4.95;;
26774;SDS011;14362;51.902;7.626;2022-07-24T06:11:11;7.57;;;4.90;;
26774;SDS011;14362;51.902;7.626;2022-07-24T06:15:12;4.85;;;4.45;;
26774;SDS011;14362;51.902;7.626;2022-07-24T06:19:14;5.57;;;5.07;;
26774;SDS011;14362;51.902;7.626;2022-07-24T06:23:15;5.35;;;4.65;;
26774;SDS011;14362;51.902;7.626;2022-07-24T06:27:18;7.88;;;4.80;;
26774;SDS011;14362;51.902;7.626;2022-07-24T06:31:20;5.13;;;4.38;;
26774;SDS011;14362;51.902;7.626;2022-07-24T06:35:21;5.03;;;4.53;;
26774;SDS011;14362;51.902;7.626;2022-07-24T06:39:23;7.95;;;4.75;;
26774;SDS011;14362;51.902;7.626;2022-07-24T06:43:26;6.82;;;5.07;;
26774;SDS011;14362;51.902;7.626;2022-07-24T06:47:28;5.30;;;4.45;;
26774;SDS011;14362;51.902;7.626;2022-07-24T06:51:29;7.63;;;5.25;;
26774;SDS011;14362;51.902;7.626;2022-07-24T06:55:30;5.50;;;5.00;;
26774;SDS011;14362;51.902;7.626;2022-07-24T06:59:33;6.25;;;4.68;;
26774;SDS011;14362;51.902;7.626;2022-07-24T07:03:35;4.70;;;4.10;;
26774;SDS011;14362;51.902;7.626;2022-07-24T07:07:37;5.70;;;4.40;;
26774;SDS011;14362;51.902;7.626;2022-07-24T07:11:39;4.75;;;4.22;;
26774;SDS011;14362;51.902;7.626;2022-07-24T07:15:42;6.50;;;4.50;;
26774;SDS011;14362;51.902;7.626;2022-07-24T07:19:44;5.10;;;4.35;;
26774;SDS011;14362;51.902;7.626;2022-07-24T07:23:45;5.45;;;4.05;;
26774;SDS011;14362;51.902;7.626;2022-07-24T07:27:46;6.65;;;4.50;;
26774;SDS011;14362;51.902;7.626;2022-07-24T07:31:49;5.00;;;4.43;;
26774;SDS011;14362;51.902;7.626;2022-07-24T07:35:51;5.60;;;4.55;;
26774;SDS011;14362;51.902;7.626;2022-07-24T07:39:52;5.20;;;4.70;;
26774;SDS011;14362;51.902;7.626;2022-07-24T07:43:54;7.40;;;4.15;;
26774;SDS011;14362;51.902;7.626;2022-07-24T07:52:01;9.95;;;5.55;;
26774;SDS011;14362;51.902;7.626;2022-07-24T07:56:02;6.22;;;4.35;;
26774;SDS011;14362;51.902;7.626;2022-07-24T08:00:05;5.20;;;4.22;;
26774;SDS011;14362;51.902;7.626;2022-07-24T08:04:09;5.65;;;4.93;;
26774;SDS011;14362;51.902;7.626;2022-07-24T08:08:11;7.57;;;4.97;;
26774;SDS011;14362;51.902;7.626;2022-07-24T08:12:12;7.93;;;4.78;;
26774;SDS011;14362;51.902;7.626;2022-07-24T08:16:14;5.68;;;5.10;;
26774;SDS011;14362;51.902;7.626;2022-07-24T08:20:17;5.10;;;4.60;;
26774;SDS011;14362;51.902;7.626;2022-07-24T08:28:21;6.57;;;4.43;;
26774;SDS011;14362;51.902;7.626;2022-07-24T08:32:23;6.45;;;5.20;;
26774;SDS011;14362;51.902;7.626;2022-07-24T08:36:26;10.35;;;4.65;;
26774;SDS011;14362;51.902;7.626;2022-07-24T08:40:29;6.88;;;4.30;;
26774;SDS011;14362;51.902;7.626;2022-07-24T08:44:33;4.38;;;3.83;;
26774;SDS011;14362;51.902;7.626;2022-07-24T08:48:35;5.85;;;4.72;;
26774;SDS011;14362;51.902;7.626;2022-07-24T08:52:39;5.57;;;4.85;;
26774;SDS011;14362;51.902;7.626;2022-07-24T08:56:41;5.57;;;4.30;;
26774;SDS011;14362;51.902;7.626;2022-07-24T09:00:43;5.38;;;4.60;;
26774;SDS011;14362;51.902;7.626;2022-07-24T09:04:45;5.68;;;4.90;;
26774;SDS011;14362;51.902;7.626;2022-07-24T09:08:58;7.80;;;5.20;;
26774;SDS011;14362;51.902;7.626;2022-07-24T09:13:11;6.30;;;4.72;;
26774;SDS011;14362;51.902;7.626;2022-07-24T09:17:15;4.82;;;4.38;;
26774;SDS011;14362;51.902;7.626;2022-07-24T09:21:18;5.88;;;4.47;;
26774;SDS011;14362;51.902;7.626;2022-07-24T09:25:22;7.45;;;4.55;;
26774;SDS011;14362;51.902;7.626;2022-07-24T09:29:25;7.50;;;4.57;;
26774;SDS011;14362;51.902;7.626;2022-07-24T09:33:27;8.77;;;5.25;;
26774;SDS011;14362;51.902;7.626;2022-07-24T09:37:36;6.18;;;5.00;;
26774;SDS011;14362;51.902;7.626;2022-07-24T09:41:49;7.70;;;4.35;;
26774;SDS011;14362;51.902;7.626;2022-07-24T09:45:54;5.50;;;4.65;;
26774;SDS011;14362;51.902;7.626;2022-07-24T09:49:57;6.60;;;5.13;;
26774;SDS011;14362;51.902;7.626;2022-07-24T09:54:12;7.65;;;5.15;;
26774;SDS011;14362;51.902;7.626;2022-07-24T09:58:33;5.93;;;4.63;;
26774;SDS011;14362;51.902;7.626;2022-07-24T10:02:37;6.00;;;4.85;;
26774;SDS011;14362;51.902;7.626;2022-07-24T10:06:38;6.43;;;5.10;;
26774;SDS011;14362;51.902;7.626;2022-07-24T10:10:44;5.28;;;4.38;;
26774;SDS011;14362;51.902;7.626;2022-07-24T10:14:48;6.20;;;4.85;;
26774;SDS011;14362;51.902;7.626;2022-07-24T10:18:51;6.88;;;5.00;;
26774;SDS011;14362;51.902;7.626;2022-07-24T10:22:57;8.82;;;5.32;;
26774;SDS011;14362;51.902;7.626;2022-07-24T10:27:03;5.88;;;5.28;;
26774;SDS011;14362;51.902;7.626;2022-07-24T10:31:08;6.28;;;5.22;;
26774;SDS011;14362;51.902;7.626;2022-07-24T10:35:12;5.70;;;4.93;;
26774;SDS011;14362;51.902;7.626;2022-07-24T10:43:20;6.63;;;5.13;;
26774;SDS011;14362;51.902;7.626;2022-07-24T10:47:25;7.82;;;5.43;;
26774;SDS011;14362;51.902;7.626;2022-07-24T10:51:27;5.82;;;4.80;;
26774;SDS011;14362;51.902;7.626;2022-07-24T10:55:29;5.97;;;5.15;;
26774;SDS011;14362;51.902;7.626;2022-07-24T10:59:32;8.55;;;5.40;;
26774;SDS011;14362;51.902;7.626;2022-07-24T11:03:37;6.57;;;5.03;;
26774;SDS011;14362;51.902;7.626;2022-07-24T11:07:38;6.68;;;4.90;;
26774;SDS011;14362;51.902;7.626;2022-07-24T11:12:26;5.47;;;4.95;;
26774;SDS011;14362;51.902;7.626;2022-07-24T11:16:29;6.50;;;5.47;;
26774;SDS011;14362;51.902;7.626;2022-07-24T11:20:32;6.83;;;5.50;;
26774;SDS011;14362;51.902;7.626;2022-07-24T11:24:40;8.85;;;5.22;;
26774;SDS011;14362;51.902;7.626;2022-07-24T11:28:44;7.93;;;5.00;;
26774;SDS011;14362;51.902;7.626;2022-07-24T11:33:16;5.43;;;4.90;;
26774;SDS011;14362;51.902;7.626;2022-07-24T11:37:21;5.50;;;5.00;;
26774;SDS011;14362;51.902;7.626;2022-07-24T11:41:24;9.60;;;5.78;;
26774;SDS011;14362;51.902;7.626;2022-07-24T11:45:27;6.38;;;5.38;;
26774;SDS011;14362;51.902;7.626;2022-07-24T11:49:29;9.02;;;5.68;;
26774;SDS011;14362;51.902;7.626;2022-07-24T11:53:30;7.68;;;5.60;;
26774;SDS011;14362;51.902;7.626;2022-07-24T11:57:33;6.72;;;5.47;;
26774;SDS011;14362;51.902;7.626;2022-07-24T12:01:37;7.10;;;5.57;;
26774;SDS011;14362;51.902;7.626;2022-07-24T12:05:39;9.85;;;5.63;;
26774;SDS011;14362;51.902;7.626;2022-07-24T12:09:45;6.20;;;5.07;;
26774;SDS011;14362;51.902;7.626;2022-07-24T12:13:48;5.95;;;5.35;;
26774;SDS011;14362;51.902;7.626;2022-07-24T12:17:53;6.35;;;5.50;;
26774;SDS011;14362;51.902;7.626;2022-07-24T12:21:57;5.88;;;5.25;;
26774;SDS011;14362;51.902;7.626;2022-07-24T12:25:59;6.90;;;5.15;;
26774;SDS011;14362;51.902;7.626;2022-07-24T12:30:01;5.65;;;5.15;;
26774;SDS011;14362;51.902;7.626;2022-07-24T12:34:04;5.38;;;4.88;;
26774;SDS011;14362;51.902;7.626;2022-07-24T12:38:05;8.73;;;5.97;;
26774;SDS011;14362;51.902;7.626;2022-07-24T12:42:07;5.63;;;5.13;;
26774;SDS011;14362;51.902;7.626;2022-07-24T12:46:08;5.45;;;4.95;;
26774;SDS011;14362;51.902;7.626;2022-07-24T12:50:13;5.73;;;4.60;;
26774;SDS011;14362;51.902;7.626;2022-07-24T12:54:16;5.10;;;4.60;;
26774;SDS011;14362;51.902;7.626;2022-07-24T12:58:19;5.57;;;4.97;;
26774;SDS011;14362;51.902;7.626;2022-07-24T13:02:21;5.28;;;4.38;;
26774;SDS011;14362;51.902;7.626;2022-07-24T13:06:36;4.43;;;4.03;;
26774;SDS011;14362;51.902;7.626;2022-07-24T13:10:40;5.30;;;4.82;;
26774;SDS011;14362;51.902;7.626;2022-07-24T13:14:41;4.82;;;4.32;;
26774;SDS011;14362;51.902;7.626;2022-07-24T13:18:43;5.22;;;4.60;;
26774;SDS011;14362;51.902;7.626;2022-07-24T13:22:46;7.38;;;4.60;;
26774;SDS011;14362;51.902;7.626;2022-07-24T13:26:48;4.83;;;4.17;;
26774;SDS011;14362;51.902;7.626;2022-07-24T13:30:50;6.57;;;4.40;;
26774;SDS011;14362;51.902;7.626;2022-07-24T13:34:51;5.47;;;4.30;;
26774;SDS011;14362;51.902;7.626;2022-07-24T13:38:54;4.57;;;4.18;;
26774;SDS011;14362;51.902;7.626;2022-07-24T13:42:56;4.65;;;3.85;;
26774;SDS011;14362;51.902;7.626;2022-07-24T13:46:57;4.60;;;4.20;;
26774;SDS011;14362;51.902;7.626;2022-07-24T13:50:59;4.57;;;4.18;;
26774;SDS011;14362;51.902;7.626;2022-07-24T13:55:02;5.90;;;4.43;;
26774;SDS011;14362;51.902;7.626;2022-07-24T13:59:03;4.70;;;4.30;;
26774;SDS011;14362;51.902;7.626;2022-07-24T14:03:05;4.90;;;4.45;;
26774;SDS011;14362;51.902;7.626;2022-07-24T14:07:06;5.05;;;4.30;;
26774;SDS011;14362;51.902;7.626;2022-07-24T14:11:09;4.43;;;4.10;;
26774;SDS011;14362;51.902;7.626;2022-07-24T14:15:11;4.88;;;4.47;;
26774;SDS011;14362;51.902;7.626;2022-07-24T14:19:13;5.88;;;4.90;;
26774;SDS011;14362;51.902;7.626;2022-07-24T14:23:15;4.85;;;4.28;;
26774;SDS011;14362;51.902;7.626;2022-07-24T14:27:17;5.43;;;4.20;;
26774;SDS011;14362;51.902;7.626;2022-07-24T14:31:19;5.10;;;4.70;;
26774;SDS011;14362;51.902;7.626;2022-07-24T14:35:20;7.47;;;4.80;;
26774;SDS011;14362;51.902;7.626;2022-07-24T14:39:22;5.05;;;4.65;;
26774;SDS011;14362;51.902;7.626;2022-07-24T14:43:25;8.15;;;4.75;;
26774;SDS011;14362;51.902;7.626;2022-07-24T14:47:27;4.93;;;4.43;;
26774;SDS011;14362;51.902;7.626;2022-07-24T14:51:29;5.55;;;4.57;;
26774;SDS011;14362;51.902;7.626;2022-07-24T14:55:30;5.53;;;4.95;;
26774;SDS011;14362;51.902;7.626;2022-07-24T14:59:33;5.15;;;4.32;;
26774;SDS011;14362;51.902;7.626;2022-07-24T15:03:34;4.67;;;4.27;;
26774;SDS011;14362;51.902;7.626;2022-07-24T15:07:36;5.25;;;4.75;;
26774;SDS011;14362;51.902;7.626;2022-07-24T15:11:37;5.40;;;4.43;;
26774;SDS011;14362;51.902;7.626;2022-07-24T15:15:40;5.70;;;4.18;;
26774;SDS011;14362;51.902;7.626;2022-07-24T15:19:41;9.17;;;4.63;;
26774;SDS011;14362;51.902;7.626;2022-07-24T15:23:43;6.68;;;4.97;;
26774;SDS011;14362;51.902;7.626;2022-07-24T15:27:44;4.90;;;4.40;;
26774;SDS011;14362;51.902;7.626;2022-07-24T15:31:48;7.10;;;4.63;;
26774;SDS011;14362;51.902;7.626;2022-07-24T15:35:50;4.50;;;4.10;;
26774;SDS011;14362;51.902;7.626;2022-07-24T15:39:51;4.80;;;4.03;;
26774;SDS011;14362;51.902;7.626;2022-07-24T15:43:53;4.80;;;4.40;;
26774;SDS011;14362;51.902;7.626;2022-07-24T15:47:56;5.47;;;4.22;;
26774;SDS011;14362;51.902;7.626;2022-07-24T15:51:57;5.43;;;4.70;;
26774;SDS011;14362;51.902;7.626;2022-07-24T15:55:59;4.82;;;4.43;;
26774;SDS011;14362;51.902;7.626;2022-07-24T16:00:01;4.82;;;4.32;;
26774;SDS011;14362;51.902;7.626;2022-07-24T16:04:05;5.15;;;4.65;;
26774;SDS011;14362;51.902;7.626;2022-07-24T16:08:06;4.82;;;4.40;;
26774;SDS011;14362;51.902;7.626;2022-07-24T16:12:08;5.63;;;4.07;;
26774;SDS011;14362;51.902;7.626;2022-07-24T16:16:10;7.30;;;4.20;;
26774;SDS011;14362;51.902;7.626;2022-07-24T16:20:13;4.78;;;3.72;;
26774;SDS011;14362;51.902;7.626;2022-07-24T16:24:14;4.25;;;3.90;;
26774;SDS011;14362;51.902;7.626;2022-07-24T16:28:16;5.45;;;4.13;;
26774;SDS011;14362;51.902;7.626;2022-07-24T16:32:17;4.63;;;4.22;;
26774;SDS011;14362;51.902;7.626;2022-07-24T16:36:20;4.47;;;4.18;;
26774;SDS011;14362;51.902;7.626;2022-07-24T16:40:22;5.80;;;4.40;;
26774;SDS011;14362;51.902;7.626;2022-07-24T16:44:23;4.50;;;4.10;;
26774;SDS011;14362;51.902;7.626;2022-07-24T16:48:25;5.03;;;4.40;;
26774;SDS011;14362;51.902;7.626;2022-07-24T16:52:28;6.13;;;5.53;;
26774;SDS011;14362;51.902;7.626;2022-07-24T16:56:29;6.90;;;4.50;;
26774;SDS011;14362;51.902;7.626;2022-07-24T17:00:30;5.43;;;4.43;;
26774;SDS011;14362;51.902;7.626;2022-07-24T17:04:32;5.63;;;4.40;;
26774;SDS011;14362;51.902;7.626;2022-07-24T17:08:35;11.27;;;5.00;;
26774;SDS011;14362;51.902;7.626;2022-07-24T17:12:37;7.83;;;7.03;;
26774;SDS011;14362;51.902;7.626;2022-07-24T17:16:38;5.78;;;4.63;;
26774;SDS011;14362;51.902;7.626;2022-07-24T17:20:40;6.88;;;5.10;;
26774;SDS011;14362;51.902;7.626;2022-07-24T17:24:44;4.68;;;4.28;;
26774;SDS011;14362;51.902;7.626;2022-07-24T17:28:46;5.70;;;4.10;;
26774;SDS011;14362;51.902;7.626;2022-07-24T17:32:47;6.70;;;3.90;;
26774;SDS011;14362;51.902;7.626;2022-07-24T17:36:49;4.95;;;4.45;;
26774;SDS011;14362;51.902;7.626;2022-07-24T17:40:52;5.05;;;4.55;;
26774;SDS011;14362;51.902;7.626;2022-07-24T17:44:53;5.83;;;4.70;;
26774;SDS011;14362;51.902;7.626;2022-07-24T17:48:55;4.30;;;3.90;;
26774;SDS011;14362;51.902;7.626;2022-07-24T17:52:56;5.65;;;4.70;;
26774;SDS011;14362;51.902;7.626;2022-07-24T17:56:59;4.90;;;4.40;;
26774;SDS011;14362;51.902;7.626;2022-07-24T18:01:00;4.80;;;4.03;;
26774;SDS011;14362;51.902;7.626;2022-07-24T18:05:02;4.13;;;3.72;;
26774;SDS011;14362;51.902;7.626;2022-07-24T18:09:04;4.25;;;3.95;;
26774;SDS011;14362;51.902;7.626;2022-07-24T18:13:06;5.95;;;4.35;;
26774;SDS011;14362;51.902;7.626;2022-07-24T18:17:08;4.90;;;4.47;;
26774;SDS011;14362;51.902;7.626;2022-07-24T18:21:11;5.28;;;3.75;;
26774;SDS011;14362;51.902;7.626;2022-07-24T18:25:12;5.55;;;3.92;;
26774;SDS011;14362;51.902;7.626;2022-07-24T18:29:15;6.28;;;4.57;;
26774;SDS011;14362;51.902;7.626;2022-07-24T18:33:16;5.57;;;4.30;;
26774;SDS011;14362;51.902;7.626;2022-07-24T18:37:18;4.93;;;4.03;;
26774;SDS011;14362;51.902;7.626;2022-07-24T18:41:19;7.10;;;4.40;;
26774;SDS011;14362;51.902;7.626;2022-07-24T18:45:22;5.35;;;4.43;;
26774;SDS011;14362;51.902;7.626;2022-07-24T18:49:24;7.03;;;4.57;;
26774;SDS011;14362;51.902;7.626;2022-07-24T18:53:25;4.95;;;4.45;;
26774;SDS011;14362;51.902;7.626;2022-07-24T18:57:27;6.85;;;4.30;;
26774;SDS011;14362;51.902;7.626;2022-07-24T19:01:29;5.97;;;4.60;;
26774;SDS011;14362;51.902;7.626;2022-07-24T19:05:32;5.15;;;4.65;;
26774;SDS011;14362;51.902;7.626;2022-07-24T19:09:34;4.80;;;4.35;;
26774;SDS011;14362;51.902;7.626;2022-07-24T19:13:37;5.60;;;4.20;;
26774;SDS011;14362;51.902;7.626;2022-07-24T19:17:40;6.88;;;4.35;;
26774;SDS011;14362;51.902;7.626;2022-07-24T19:21:41;5.53;;;4.40;;
26774;SDS011;14362;51.902;7.626;2022-07-24T19:25:42;5.38;;;4.80;;
26774;SDS011;14362;51.902;7.626;2022-07-24T19:29:44;5.18;;;4.45;;
26774;SDS011;14362;51.902;7.626;2022-07-24T19:33:47;5.68;;;4.40;;
26774;SDS011;14362;51.902;7.626;2022-07-24T19:37:48;5.22;;;4.82;;
26774;SDS011;14362;51.902;7.626;2022-07-24T19:41:50;5.30;;;4.25;;
26774;SDS011;14362;51.902;7.626;2022-07-24T19:45:51;7.63;;;5.55;;
26774;SDS011;14362;51.902;7.626;2022-07-24T19:49:54;6.20;;;5.60;;
26774;SDS011;14362;51.902;7.626;2022-07-24T19:53:56;4.93;;;4.53;;
26774;SDS011;14362;51.902;7.626;2022-07-24T19:57:57;6.10;;;5.50;;
26774;SDS011;14362;51.902;7.626;2022-07-24T20:01:59;7.07;;;5.75;;
26774;SDS011;14362;51.902;7.626;2022-07-24T20:06:02;5.93;;;5.05;;
26774;SDS011;14362;51.902;7.626;2022-07-24T20:10:04;7.40;;;6.00;;
26774;SDS011;14362;51.902;7.626;2022-07-24T20:14:06;6.63;;;5.97;;
26774;SDS011;14362;51.902;7.626;2022-07-24T20:18:07;6.10;;;5.50;;
26774;SDS011;14362;51.902;7.626;2022-07-24T20:22:11;6.72;;;5.55;;
26774;SDS011;14362;51.902;7.626;2022-07-24T20:26:12;5.93;;;5.10;;
26774;SDS011;14362;51.902;7.626;2022-07-24T20:30:14;10.27;;;6.18;;
26774;SDS011;14362;51.902;7.626;2022-07-24T20:34:16;8.05;;;5.93;;
26774;SDS011;14362;51.902;7.626;2022-07-24T20:38:19;6.72;;;6.03;;
26774;SDS011;14362;51.902;7.626;2022-07-24T20:42:20;6.35;;;5.85;;
26774;SDS011;14362;51.902;7.626;2022-07-24T20:46:22;6.35;;;5.75;;
26774;SDS011;14362;51.902;7.626;2022-07-24T20:50:23;6.40;;;5.82;;
26774;SDS011;14362;51.902;7.626;2022-07-24T20:54:26;6.20;;;5.57;;
26774;SDS011;14362;51.902;7.626;2022-07-24T20:58:27;7.10;;;6.07;;
26774;SDS011;14362;51.902;7.626;2022-07-24T21:02:29;9.32;;;7.00;;
26774;SDS011;14362;51.902;7.626;2022-07-24T21:06:30;8.35;;;7.07;;
26774;SDS011;14362;51.902;7.626;2022-07-24T21:10:33;6.95;;;6.30;;
26774;SDS011;14362;51.902;7.626;2022-07-24T21:14:35;7.72;;;6.03;;
26774;SDS011;14362;51.902;7.626;2022-07-24T21:18:36;9.93;;;5.95;;
26774;SDS011;14362;51.902;7.626;2022-07-24T21:22:38;6.78;;;6.07;;
26774;SDS011;14362;51.902;7.626;2022-07-24T21:26:41;6.43;;;5.82;;
26774;SDS011;14362;51.902;7.626;2022-07-24T21:30:42;6.60;;;6.00;;
26774;SDS011;14362;51.902;7.626;2022-07-24T21:34:44;6.65;;;5.60;;
26774;SDS011;14362;51.902;7.626;2022-07-24T21:38:45;6.32;;;5.68;;
26774;SDS011;14362;51.902;7.626;2022-07-24T21:42:48;6.10;;;5.57;;
26774;SDS011;14362;51.902;7.626;2022-07-24T21:46:49;6.30;;;5.70;;
26774;SDS011;14362;51.902;7.626;2022-07-24T21:50:51;6.32;;;5.10;;
26774;SDS011;14362;51.902;7.626;2022-07-24T21:54:52;7.22;;;5.35;;
26774;SDS011;14362;51.902;7.626;2022-07-24T21:58:55;7.45;;;5.78;;
26774;SDS011;14362;51.902;7.626;2022-07-24T22:02:56;8.38;;;5.50;;
26774;SDS011;14362;51.902;7.626;2022-07-24T22:06:58;5.90;;;5.30;;
26774;SDS011;14362;51.902;7.626;2022-07-24T22:11:01;6.35;;;5.13;;
26774;SDS011;14362;51.902;7.626;2022-07-24T22:15:05;6.00;;;5.13;;
26774;SDS011;14362;51.902;7.626;2022-07-24T22:23:09;7.10;;;5.88;;
26774;SDS011;14362;51.902;7.626;2022-07-24T22:27:10;7.63;;;5.50;;
26774;SDS011;14362;51.902;7.626;2022-07-24T22:31:13;6.63;;;5.50;;
26774;SDS011;14362;51.902;7.626;2022-07-24T22:35:15;6.50;;;5.65;;
26774;SDS011;14362;51.902;7.626;2022-07-24T22:39:16;6.72;;;5.68;;
26774;SDS011;14362;51.902;7.626;2022-07-24T22:43:18;6.50;;;5.53;;
26774;SDS011;14362;51.902;7.626;2022-07-24T22:47:22;6.25;;;5.65;;
26774;SDS011;14362;51.902;7.626;2022-07-24T22:51:24;6.85;;;5.90;;
26774;SDS011;14362;51.902;7.626;2022-07-24T22:55:26;10.10;;;6.05;;
26774;SDS011;14362;51.902;7.626;2022-07-24T22:59:29;7.80;;;5.30;;
26774;SDS011;14362;51.902;7.626;2022-07-24T23:03:33;11.00;;;5.53;;
26774;SDS011;14362;51.902;7.626;2022-07-24T23:07:34;12.43;;;6.25;;
26774;SDS011;14362;51.902;7.626;2022-07-24T23:11:35;7.32;;;5.95;;
26774;SDS011;14362;51.902;7.626;2022-07-24T23:15:37;6.28;;;5.68;;
26774;SDS011;14362;51.902;7.626;2022-07-24T23:19:40;7.90;;;5.70;;
26774;SDS011;14362;51.902;7.626;2022-07-24T23:23:41;8.70;;;5.80;;
26774;SDS011;14362;51.902;7.626;2022-07-24T23:27:43;6.00;;;5.13;;
26774;SDS011;14362;51.902;7.626;2022-07-24T23:31:44;7.70;;;5.68;;
26774;SDS011;14362;51.902;7.626;2022-07-24T23:35:47;6.88;;;5.93;;
26774;SDS011;14362;51.902;7.626;2022-07-24T23:39:49;5.90;;;5.32;;
26774;SDS011;14362;51.902;7.626;2022-07-24T23:43:51;6.50;;;5.72;;
26774;SDS011;14362;51.902;7.626;2022-07-24T23:47:52;7.28;;;5.90;;
26774;SDS011;14362;51.902;7.626;2022-07-24T23:51:55;7.55;;;6.28;;
26774;SDS011;14362;51.902;7.626;2022-07-24T23:55:57;7.38;;;6.15;;
26774;SDS011;14362;51.902;7.626;2022-07-24T23:59:58;6.25;;;5.65;;
